createdAt,value
2018-03-26T00:01:13.749Z,8.60
2018-03-26T00:03:42.157Z,8.60
2018-03-26T00:06:11.553Z,8.50
2018-03-26T00:08:39.065Z,8.50
2018-03-26T00:11:06.577Z,8.50
2018-03-26T00:13:34.573Z,8.50
2018-03-26T00:16:02.957Z,8.40
2018-03-26T00:18:30.452Z,8.40
2018-03-26T00:20:57.942Z,8.30
2018-03-26T00:23:25.854Z,8.20
2018-03-26T00:25:53.371Z,8.10
2018-03-26T00:28:20.849Z,7.90
2018-03-26T00:30:48.744Z,7.80
2018-03-26T00:33:16.966Z,7.70
2018-03-26T00:35:44.488Z,7.60
2018-03-26T00:38:14.958Z,7.50
2018-03-26T00:40:42.869Z,7.40
2018-03-26T00:43:11.601Z,7.40
2018-03-26T00:45:39.195Z,7.40
2018-03-26T00:48:08.575Z,7.40
2018-03-26T00:50:36.854Z,7.50
2018-03-26T00:53:04.736Z,7.50
2018-03-26T00:55:32.979Z,7.50
2018-03-26T00:58:01.209Z,7.60
2018-03-26T01:00:29.482Z,7.60
2018-03-26T01:02:56.966Z,7.60
2018-03-26T01:05:25.180Z,7.60
2018-03-26T01:07:53.391Z,7.70
2018-03-26T01:10:20.838Z,7.70
2018-03-26T01:12:49.082Z,7.70
2018-03-26T01:15:16.552Z,7.70
2018-03-26T01:17:44.423Z,7.70
2018-03-26T01:20:12.286Z,7.70
2018-03-26T01:22:41.253Z,7.60
2018-03-26T01:25:09.480Z,7.60
2018-03-26T01:27:37.707Z,7.50
2018-03-26T01:30:05.565Z,7.50
2018-03-26T01:32:33.831Z,7.50
2018-03-26T01:35:02.119Z,7.40
2018-03-26T01:37:30.430Z,7.30
2018-03-26T01:39:57.952Z,7.20
2018-03-26T01:42:26.981Z,7.20
2018-03-26T01:45:01.446Z,7.20
2018-03-26T01:47:29.748Z,7.10
2018-03-26T01:49:57.928Z,7.20
2018-03-26T01:52:25.471Z,7.10
2018-03-26T01:54:53.797Z,7.10
2018-03-26T01:57:21.252Z,7.10
2018-03-26T01:59:48.756Z,7.00
2018-03-26T02:02:16.624Z,6.90
2018-03-26T02:04:44.687Z,7.00
2018-03-26T02:07:12.176Z,7.00
2018-03-26T02:09:39.746Z,6.90
2018-03-26T02:12:07.811Z,6.90
2018-03-26T02:14:35.720Z,6.90
2018-03-26T02:17:03.194Z,6.90
2018-03-26T02:19:30.695Z,7.00
2018-03-26T02:21:58.545Z,7.00
2018-03-26T02:24:26.775Z,7.00
2018-03-26T02:26:54.246Z,6.90
2018-03-26T02:29:21.731Z,6.90
2018-03-26T02:31:49.983Z,6.90
2018-03-26T02:34:17.453Z,7.00
2018-03-26T02:36:44.931Z,7.00
2018-03-26T02:39:12.386Z,7.00
2018-03-26T02:41:39.951Z,7.10
2018-03-26T02:44:07.424Z,7.00
2018-03-26T02:46:34.875Z,7.10
2018-03-26T02:49:02.424Z,7.10
2018-03-26T02:51:29.917Z,7.10
2018-03-26T02:53:57.433Z,7.10
2018-03-26T02:56:24.966Z,7.10
2018-03-26T02:58:52.831Z,7.10
2018-03-26T03:01:20.708Z,7.00
2018-03-26T03:03:48.628Z,7.10
2018-03-26T03:06:16.504Z,7.10
2018-03-26T03:08:43.987Z,7.10
2018-03-26T03:11:11.893Z,7.00
2018-03-26T03:13:40.145Z,7.00
2018-03-26T03:16:07.685Z,6.90
2018-03-26T03:18:35.183Z,7.00
2018-03-26T03:21:02.710Z,7.00
2018-03-26T03:23:30.167Z,7.00
2018-03-26T03:25:57.683Z,7.00
2018-03-26T03:28:26.836Z,7.00
2018-03-26T03:30:54.350Z,7.00
2018-03-26T03:33:22.640Z,7.10
2018-03-26T03:35:50.099Z,7.00
2018-03-26T03:38:17.572Z,7.00
2018-03-26T03:40:45.048Z,7.00
2018-03-26T03:43:12.550Z,7.10
2018-03-26T03:45:40.762Z,7.10
2018-03-26T03:48:08.228Z,7.10
2018-03-26T03:50:35.739Z,7.10
2018-03-26T03:53:03.224Z,7.10
2018-03-26T03:55:31.160Z,7.10
2018-03-26T03:57:58.651Z,7.00
2018-03-26T04:00:26.131Z,7.00
2018-03-26T04:02:53.631Z,7.00
2018-03-26T04:05:21.200Z,7.00
2018-03-26T04:07:49.420Z,7.00
2018-03-26T04:10:16.872Z,7.00
2018-03-26T04:12:44.321Z,6.90
2018-03-26T04:15:12.567Z,7.00
2018-03-26T04:17:40.094Z,7.00
2018-03-26T04:20:07.583Z,7.00
2018-03-26T04:22:35.855Z,7.00
2018-03-26T04:25:03.327Z,7.00
2018-03-26T04:27:30.811Z,6.90
2018-03-26T04:29:58.365Z,6.90
2018-03-26T04:32:25.847Z,6.90
2018-03-26T04:34:54.150Z,6.90
2018-03-26T04:37:21.634Z,6.90
2018-03-26T04:39:49.135Z,6.90
2018-03-26T04:42:17.184Z,6.90
2018-03-26T04:44:45.433Z,6.80
2018-03-26T04:47:13.655Z,6.90
2018-03-26T04:49:41.167Z,6.90
2018-03-26T04:52:09.374Z,6.80
2018-03-26T04:54:37.255Z,6.80
2018-03-26T04:57:04.704Z,6.80
2018-03-26T04:59:32.575Z,6.70
2018-03-26T05:02:00.865Z,6.80
2018-03-26T05:04:29.895Z,6.80
2018-03-26T05:06:57.768Z,6.80
2018-03-26T05:09:26.039Z,6.80
2018-03-26T05:11:54.364Z,6.80
2018-03-26T05:14:21.969Z,6.80
2018-03-26T05:16:49.453Z,6.80
2018-03-26T05:19:17.318Z,6.70
2018-03-26T05:21:44.787Z,6.70
2018-03-26T05:24:12.253Z,6.60
2018-03-26T05:26:39.703Z,6.50
2018-03-26T05:29:07.166Z,6.50
2018-03-26T05:31:35.014Z,6.50
2018-03-26T05:34:04.308Z,6.50
2018-03-26T05:36:31.911Z,6.50
2018-03-26T05:38:59.388Z,6.50
2018-03-26T05:41:27.022Z,6.40
2018-03-26T05:43:55.386Z,6.30
2018-03-26T05:46:22.952Z,6.30
2018-03-26T05:48:50.457Z,6.30
2018-03-26T05:51:18.745Z,6.40
2018-03-26T05:53:47.367Z,6.30
2018-03-26T05:56:15.224Z,6.20
2018-03-26T05:58:42.741Z,6.20
2018-03-26T06:01:10.207Z,6.20
2018-03-26T06:03:38.196Z,6.20
2018-03-26T06:06:06.187Z,6.20
2018-03-26T06:08:34.416Z,6.20
2018-03-26T06:11:02.678Z,6.20
2018-03-26T06:13:30.564Z,6.30
2018-03-26T06:15:58.175Z,6.30
2018-03-26T06:18:26.230Z,6.40
2018-03-26T06:20:53.891Z,6.40
2018-03-26T06:23:23.267Z,6.40
2018-03-26T06:25:51.535Z,6.50
2018-03-26T06:28:19.008Z,6.50
2018-03-26T06:30:46.482Z,6.50
2018-03-26T06:33:14.109Z,6.50
2018-03-26T06:35:41.603Z,6.60
2018-03-26T06:38:14.661Z,6.50
2018-03-26T06:40:42.271Z,6.30
2018-03-26T06:43:09.885Z,6.40
2018-03-26T06:45:37.361Z,6.40
2018-03-26T06:48:04.821Z,6.50
2018-03-26T06:50:33.116Z,6.50
2018-03-26T06:53:00.660Z,6.50
2018-03-26T06:55:28.390Z,6.60
2018-03-26T06:57:56.962Z,6.50
2018-03-26T07:00:24.646Z,6.40
2018-03-26T07:02:52.329Z,6.50
2018-03-26T07:05:20.663Z,6.50
2018-03-26T07:07:48.940Z,6.50
2018-03-26T07:10:16.800Z,6.40
2018-03-26T07:12:46.342Z,6.40
2018-03-26T07:15:14.606Z,6.40
2018-03-26T07:17:42.280Z,6.40
2018-03-26T07:20:09.781Z,6.60
2018-03-26T07:22:37.337Z,6.80
2018-03-26T07:25:05.271Z,6.80
2018-03-26T07:27:33.963Z,6.80
2018-03-26T07:30:02.310Z,6.80
2018-03-26T07:32:31.052Z,6.80
2018-03-26T07:34:59.494Z,7.20
2018-03-26T07:37:27.109Z,7.50
2018-03-26T07:39:54.686Z,7.30
2018-03-26T07:42:22.168Z,7.50
2018-03-26T07:44:49.624Z,7.50
2018-03-26T07:47:17.119Z,7.30
2018-03-26T07:49:44.583Z,7.70
2018-03-26T07:52:12.064Z,7.80
2018-03-26T07:54:39.689Z,8.30
2018-03-26T07:57:08.020Z,8.50
2018-03-26T07:59:35.888Z,8.90
2018-03-26T08:02:03.441Z,9.50
2018-03-26T08:04:31.340Z,9.50
2018-03-26T08:06:58.850Z,9.40
2018-03-26T08:09:26.920Z,9.60
2018-03-26T08:11:54.601Z,9.40
2018-03-26T08:14:29.232Z,9.60
2018-03-26T08:16:57.594Z,9.80
2018-03-26T08:19:25.850Z,10.20
2018-03-26T08:21:54.161Z,10.70
2018-03-26T08:24:21.856Z,10.30
2018-03-26T08:26:49.413Z,9.90
2018-03-26T08:29:16.961Z,10.00
2018-03-26T08:31:45.160Z,9.70
2018-03-26T08:34:12.643Z,9.60
2018-03-26T08:36:40.189Z,9.90
2018-03-26T08:39:08.762Z,10.60
2018-03-26T08:41:36.492Z,10.30
2018-03-26T08:44:04.535Z,11.00
2018-03-26T08:46:32.141Z,10.50
2018-03-26T08:48:59.679Z,10.40
2018-03-26T08:51:28.021Z,10.30
2018-03-26T08:53:56.080Z,11.20
2018-03-26T08:56:23.584Z,11.80
2018-03-26T08:58:51.114Z,12.40
2018-03-26T09:01:18.613Z,12.30
2018-03-26T09:03:46.073Z,11.50
2018-03-26T09:06:14.038Z,10.30
2018-03-26T09:08:41.516Z,10.30
2018-03-26T09:11:08.976Z,10.00
2018-03-26T09:13:38.035Z,10.30
2018-03-26T09:16:05.515Z,10.30
2018-03-26T09:18:33.141Z,10.50
2018-03-26T09:21:00.693Z,10.00
2018-03-26T09:23:28.896Z,9.60
2018-03-26T09:25:57.404Z,9.80
2018-03-26T09:28:25.676Z,10.50
2018-03-26T09:30:53.540Z,10.60
2018-03-26T09:33:23.859Z,11.00
2018-03-26T09:35:51.537Z,10.80
2018-03-26T09:38:19.019Z,10.60
2018-03-26T09:40:47.489Z,11.50
2018-03-26T09:43:14.957Z,10.90
2018-03-26T09:45:42.413Z,10.80
2018-03-26T09:48:10.547Z,10.80
2018-03-26T09:50:38.147Z,11.50
2018-03-26T09:53:06.388Z,11.40
2018-03-26T09:55:34.448Z,10.90
2018-03-26T09:58:01.937Z,11.30
2018-03-26T10:00:36.167Z,11.60
2018-03-26T10:05:43.881Z,12.40
2018-03-26T10:08:11.412Z,12.80
2018-03-26T10:10:38.869Z,13.00
2018-03-26T10:13:08.255Z,13.50
2018-03-26T10:15:36.702Z,14.70
2018-03-26T10:18:05.386Z,15.90
2018-03-26T10:20:35.844Z,15.00
2018-03-26T10:23:05.926Z,14.20
2018-03-26T10:25:34.280Z,12.40
2018-03-26T10:28:02.650Z,13.60
2018-03-26T10:30:31.233Z,14.20
2018-03-26T10:32:58.681Z,14.30
2018-03-26T10:35:26.151Z,15.00
2018-03-26T10:37:53.755Z,14.80
2018-03-26T10:40:21.294Z,14.40
2018-03-26T10:42:49.712Z,16.10
2018-03-26T12:01:14.958Z,15.00
2018-03-26T12:03:42.497Z,15.80
2018-03-26T12:06:10.040Z,16.30
2018-03-26T12:08:37.876Z,16.50
2018-03-26T12:11:07.263Z,16.40
2018-03-26T12:13:47.671Z,16.40
2018-03-26T12:22:15.981Z,13.40
2018-03-26T12:25:07.247Z,13.40
2018-03-26T12:27:57.252Z,13.70
2018-03-26T12:30:25.496Z,13.20
2018-03-26T12:32:52.988Z,13.10
2018-03-26T12:35:32.301Z,13.50
2018-03-26T12:38:00.587Z,15.30
2018-03-26T12:40:39.805Z,16.40
2018-03-26T12:43:08.196Z,17.00
2018-03-26T12:45:47.680Z,16.70
2018-03-26T12:48:15.953Z,15.00
2018-03-26T12:50:55.848Z,13.90
2018-03-26T12:53:24.503Z,12.80
2018-03-26T12:55:53.872Z,12.10
2018-03-26T12:58:33.943Z,11.90
2018-03-26T13:01:13.275Z,11.80
2018-03-26T13:03:40.727Z,11.40
2018-03-26T13:06:08.238Z,11.10
2018-03-26T13:08:36.557Z,10.80
2018-03-26T13:11:04.825Z,10.80
2018-03-26T13:13:37.265Z,10.80
2018-03-26T13:16:19.357Z,10.80
2018-03-26T13:21:25.715Z,10.90
2018-03-26T13:23:53.192Z,10.90
2018-03-26T13:28:56.046Z,11.00
2018-03-26T13:31:23.532Z,10.90
2018-03-26T13:33:51.088Z,10.90
2018-03-26T13:36:18.909Z,10.70
2018-03-26T13:38:47.157Z,10.60
2018-03-26T13:41:14.659Z,10.60
2018-03-26T13:43:43.216Z,10.50
2018-03-26T13:46:18.294Z,10.50
2018-03-26T13:51:22.545Z,10.60
2018-03-26T13:53:54.195Z,10.70
2018-03-26T13:56:22.570Z,10.70
2018-03-26T13:58:50.255Z,10.80
2018-03-26T14:01:19.981Z,11.00
2018-03-26T14:03:47.919Z,11.10
2018-03-26T14:06:15.429Z,11.30
2018-03-26T14:08:54.569Z,11.80
2018-03-26T14:11:34.556Z,12.40
2018-03-26T14:14:13.862Z,12.60
2018-03-26T14:16:53.091Z,12.80
2018-03-26T14:19:20.658Z,12.40
2018-03-26T14:21:48.512Z,11.80
2018-03-26T14:24:17.631Z,11.90
2018-03-26T14:26:45.071Z,12.10
2018-03-26T14:29:12.524Z,12.20
2018-03-26T14:31:39.984Z,12.80
2018-03-26T14:34:07.441Z,13.70
2018-03-26T14:36:34.918Z,13.50
2018-03-26T14:39:03.189Z,13.40
2018-03-26T14:41:30.627Z,13.20
2018-03-26T14:43:58.110Z,13.70
2018-03-26T14:46:28.372Z,13.70
2018-03-26T14:49:04.553Z,13.90
2018-03-26T14:51:32.462Z,13.90
2018-03-26T14:54:00.258Z,13.90
2018-03-26T14:56:27.703Z,14.10
2018-03-26T14:58:57.344Z,14.10
2018-03-26T15:01:26.155Z,14.50
2018-03-26T15:03:59.361Z,14.50
2018-03-26T15:06:27.584Z,14.10
2018-03-26T15:08:55.039Z,14.40
2018-03-26T15:11:23.077Z,15.60
2018-03-26T15:13:50.609Z,16.20
2018-03-26T15:16:18.098Z,16.80
2018-03-26T15:18:47.236Z,17.10
2018-03-26T15:21:14.670Z,16.90
2018-03-26T15:23:42.126Z,15.40
2018-03-26T15:26:17.042Z,14.20
2018-03-26T15:28:44.934Z,14.00
2018-03-26T15:31:18.298Z,13.70
2018-03-26T15:33:45.783Z,13.00
2018-03-26T15:36:14.686Z,12.20
2018-03-26T15:38:42.240Z,11.80
2018-03-26T15:41:19.161Z,11.70
2018-03-26T15:43:47.460Z,11.70
2018-03-26T15:46:14.903Z,11.70
2018-03-26T15:48:42.783Z,11.70
2018-03-26T15:51:10.377Z,11.50
2018-03-26T15:53:43.882Z,11.30
2018-03-26T15:56:12.079Z,11.30
2018-03-26T15:58:43.950Z,11.50
2018-03-26T16:01:17.959Z,11.50
2018-03-26T16:03:45.411Z,11.30
2018-03-26T16:06:12.882Z,11.10
2018-03-26T16:08:59.759Z,11.20
2018-03-26T16:11:27.266Z,11.00
2018-03-26T16:13:55.498Z,10.80
2018-03-26T16:16:23.856Z,10.80
2018-03-26T16:19:17.019Z,11.30
2018-03-26T16:21:48.376Z,11.80
2018-03-26T16:24:15.821Z,11.80
2018-03-26T16:26:43.267Z,11.50
2018-03-26T16:29:10.853Z,11.30
2018-03-26T16:31:47.590Z,11.10
2018-03-26T16:34:15.088Z,11.10
2018-03-26T16:36:42.580Z,11.00
2018-03-26T16:39:17.830Z,11.00
2018-03-26T16:41:47.870Z,10.90
2018-03-26T16:44:15.326Z,10.90
2018-03-26T16:46:42.819Z,10.70
2018-03-26T16:49:10.363Z,10.50
2018-03-26T16:51:37.824Z,10.40
2018-03-26T16:54:06.080Z,10.30
2018-03-26T16:56:47.708Z,10.30
2018-03-26T16:59:15.977Z,10.20
2018-03-26T17:04:43.252Z,10.20
2018-03-26T17:07:11.137Z,10.10
2018-03-26T17:09:39.061Z,10.20
2018-03-26T17:12:08.879Z,10.10
2018-03-26T17:14:36.814Z,10.10
2018-03-26T17:17:11.811Z,10.00
2018-03-26T17:19:39.269Z,10.00
2018-03-26T17:22:06.784Z,9.90
2018-03-26T17:24:34.296Z,9.90
2018-03-26T17:27:01.733Z,9.90
2018-03-26T17:29:29.559Z,9.90
2018-03-26T17:31:57.393Z,9.90
2018-03-26T17:34:25.234Z,9.80
2018-03-26T17:36:52.675Z,9.70
2018-03-26T17:39:20.207Z,9.60
2018-03-26T17:41:47.661Z,9.50
2018-03-26T17:44:15.492Z,9.40
2018-03-26T17:46:43.690Z,9.30
2018-03-26T17:49:11.123Z,9.20
2018-03-26T17:51:38.554Z,9.10
2018-03-26T17:54:05.999Z,9.00
2018-03-26T17:56:33.455Z,8.70
2018-03-26T17:59:00.939Z,8.70
2018-03-26T18:01:29.134Z,8.60
2018-03-26T18:03:56.570Z,8.70
2018-03-26T18:06:24.008Z,8.60
2018-03-26T18:08:51.835Z,8.60
2018-03-26T18:11:19.285Z,8.70
2018-03-26T18:13:46.753Z,8.70
2018-03-26T18:16:14.178Z,8.80
2018-03-26T18:18:42.934Z,8.70
2018-03-26T18:21:10.799Z,8.60
2018-03-26T18:23:38.210Z,8.50
2018-03-26T18:26:05.631Z,8.30
2018-03-26T18:28:33.102Z,8.00
2018-03-26T18:31:00.535Z,7.80
2018-03-26T18:33:29.307Z,7.60
2018-03-26T18:35:56.754Z,7.60
2018-03-26T18:38:24.211Z,7.50
2018-03-26T18:40:51.632Z,7.40
2018-03-26T18:43:19.840Z,7.30
2018-03-26T18:45:47.296Z,7.10
2018-03-26T18:48:15.511Z,7.10
2018-03-26T18:50:42.926Z,7.00
2018-03-26T18:53:10.366Z,6.90
2018-03-26T18:55:37.806Z,6.80
2018-03-26T18:58:05.226Z,6.70
2018-03-26T19:00:32.671Z,6.60
2018-03-26T19:03:00.107Z,6.50
2018-03-26T19:05:27.555Z,6.60
2018-03-26T19:07:55.770Z,6.70
2018-03-26T19:10:23.209Z,6.70
2018-03-26T19:12:51.422Z,6.80
2018-03-26T19:15:18.859Z,6.80
2018-03-26T19:17:47.058Z,6.80
2018-03-26T19:20:14.511Z,6.90
2018-03-26T19:22:42.727Z,6.90
2018-03-26T19:25:10.158Z,6.90
2018-03-26T19:27:37.597Z,7.00
2018-03-26T19:30:05.826Z,7.00
2018-03-26T19:32:33.272Z,7.00
2018-03-26T19:35:01.534Z,7.00
2018-03-26T19:37:29.730Z,7.10
2018-03-26T19:39:57.678Z,7.20
2018-03-26T19:42:25.784Z,7.30
2018-03-26T19:44:53.677Z,7.50
2018-03-26T19:47:21.559Z,7.70
2018-03-26T19:49:49.418Z,7.70
2018-03-26T19:52:17.647Z,7.60
2018-03-26T19:54:45.503Z,7.60
2018-03-26T19:57:13.722Z,7.60
2018-03-26T19:59:43.683Z,7.70
2018-03-26T20:02:11.551Z,7.60
2018-03-26T20:04:38.996Z,7.60
2018-03-26T20:07:06.434Z,7.60
2018-03-26T20:09:33.868Z,7.70
2018-03-26T20:12:01.686Z,7.80
2018-03-26T20:14:29.510Z,7.80
2018-03-26T20:16:57.342Z,7.90
2018-03-26T20:19:25.574Z,7.90
2018-03-26T20:21:53.782Z,8.00
2018-03-26T20:24:21.611Z,8.00
2018-03-26T20:26:49.827Z,8.00
2018-03-26T20:29:17.655Z,8.10
2018-03-26T20:31:45.505Z,8.00
2018-03-26T20:34:13.730Z,7.90
2018-03-26T20:36:41.952Z,8.00
2018-03-26T20:39:09.843Z,8.10
2018-03-26T20:41:37.670Z,8.10
2018-03-26T20:44:05.519Z,8.10
2018-03-26T20:46:33.764Z,8.20
2018-03-26T20:49:01.980Z,8.20
2018-03-26T20:51:29.866Z,8.10
2018-03-26T20:53:58.104Z,8.00
2018-03-26T20:56:25.543Z,8.00
2018-03-26T20:58:53.758Z,7.90
2018-03-26T21:03:55.431Z,7.70
2018-03-26T21:06:22.897Z,7.60
2018-03-26T21:08:50.302Z,7.60
2018-03-26T21:11:17.763Z,7.60
2018-03-26T21:13:46.201Z,7.60
2018-03-26T21:16:13.659Z,7.70
2018-03-26T21:18:41.834Z,7.70
2018-03-26T21:21:10.034Z,7.80
2018-03-26T21:23:37.863Z,7.80
2018-03-26T21:26:05.691Z,7.80
2018-03-26T21:28:33.909Z,7.80
2018-03-26T21:31:02.114Z,7.80
2018-03-26T21:33:29.950Z,7.90
2018-03-26T21:35:57.416Z,7.80
2018-03-26T21:38:24.860Z,7.80
2018-03-26T21:40:52.303Z,7.80
2018-03-26T21:43:19.772Z,7.70
2018-03-26T21:45:47.206Z,7.70
2018-03-26T21:48:15.415Z,7.60
2018-03-26T21:50:42.850Z,7.40
2018-03-26T21:53:11.138Z,7.30
2018-03-26T21:55:38.523Z,7.20
2018-03-26T21:58:06.762Z,7.10
2018-03-26T22:00:34.226Z,7.10
2018-03-26T22:03:01.697Z,7.10
2018-03-26T22:05:29.166Z,7.00
2018-03-26T22:07:57.398Z,7.00
2018-03-26T22:10:25.619Z,6.90
2018-03-26T22:12:53.054Z,6.90
2018-03-26T22:15:20.900Z,6.80
2018-03-26T22:17:48.355Z,6.70
2018-03-26T22:20:15.794Z,6.60
2018-03-26T22:22:43.239Z,6.40
2018-03-26T22:25:11.075Z,6.40
2018-03-26T22:27:38.535Z,6.30
2018-03-26T22:30:05.988Z,6.30
2018-03-26T22:32:33.466Z,6.20
2018-03-26T22:35:00.932Z,5.80
2018-03-26T22:37:28.386Z,5.70
2018-03-26T22:39:55.955Z,5.50
2018-03-26T22:42:24.212Z,5.30
2018-03-26T22:44:52.470Z,5.30
2018-03-26T22:47:20.320Z,5.10
2018-03-26T22:49:48.547Z,5.00
2018-03-26T22:52:16.000Z,4.90
2018-03-26T22:54:43.459Z,4.90
2018-03-26T22:57:10.895Z,4.80
2018-03-26T22:59:38.345Z,4.70
2018-03-26T23:02:05.809Z,4.60
2018-03-26T23:04:34.042Z,4.50
2018-03-26T23:07:01.875Z,4.50
2018-03-26T23:09:29.331Z,4.30
2018-03-26T23:11:57.525Z,4.30
2018-03-26T23:14:24.983Z,4.20
2018-03-26T23:16:52.428Z,4.10
2018-03-26T23:19:20.292Z,4.10
2018-03-26T23:21:48.525Z,4.40
2018-03-26T23:24:16.739Z,4.40
2018-03-26T23:26:44.167Z,4.40
2018-03-26T23:29:12.012Z,4.40
2018-03-26T23:31:40.248Z,4.40
2018-03-26T23:34:08.457Z,4.50
2018-03-26T23:36:36.298Z,4.50
2018-03-26T23:39:04.524Z,4.60
2018-03-26T23:41:32.721Z,4.60
2018-03-26T23:44:00.935Z,4.70
2018-03-26T23:46:29.134Z,4.60
2018-03-26T23:48:56.987Z,4.60
2018-03-26T23:51:25.215Z,4.60
2018-03-26T23:53:53.448Z,4.70
2018-03-26T23:56:21.647Z,5.00
2018-03-26T23:58:49.485Z,5.20
